sensor_id;sensor_type;location;lat;lon;timestamp;P1;durP1;ratioP1;P2;durP2;ratioP2
51925;SDS011;37952;51.938;15.480;2022-08-25T00:05:14;8.00;;;7.30;;
51925;SDS011;37952;51.938;15.480;2022-08-25T00:08:19;9.20;;;7.20;;
51925;SDS011;37952;51.938;15.480;2022-08-25T00:11:22;8.30;;;7.70;;
51925;SDS011;37952;51.938;15.480;2022-08-25T00:14:27;9.80;;;8.70;;
51925;SDS011;37952;51.938;15.480;2022-08-25T00:20:44;7.20;;;6.60;;
51925;SDS011;37952;51.938;15.480;2022-08-25T00:23:50;8.80;;;7.60;;
51925;SDS011;37952;51.938;15.480;2022-08-25T00:26:54;10.40;;;9.00;;
51925;SDS011;37952;51.938;15.480;2022-08-25T00:33:31;9.60;;;7.20;;
51925;SDS011;37952;51.938;15.480;2022-08-25T00:36:35;9.50;;;7.20;;
51925;SDS011;37952;51.938;15.480;2022-08-25T00:39:39;12.00;;;7.40;;
51925;SDS011;37952;51.938;15.480;2022-08-25T00:42:42;8.70;;;8.00;;
51925;SDS011;37952;51.938;15.480;2022-08-25T00:45:46;8.50;;;7.70;;
51925;SDS011;37952;51.938;15.480;2022-08-25T00:48:51;8.00;;;7.30;;
51925;SDS011;37952;51.938;15.480;2022-08-25T00:58:17;19.10;;;9.20;;
51925;SDS011;37952;51.938;15.480;2022-08-25T01:01:22;9.20;;;8.40;;
51925;SDS011;37952;51.938;15.480;2022-08-25T01:04:26;12.90;;;7.40;;
51925;SDS011;37952;51.938;15.480;2022-08-25T01:07:29;8.50;;;7.60;;
51925;SDS011;37952;51.938;15.480;2022-08-25T01:10:32;8.70;;;8.00;;
51925;SDS011;37952;51.938;15.480;2022-08-25T01:16:44;7.80;;;6.60;;
51925;SDS011;37952;51.938;15.480;2022-08-25T01:19:52;11.80;;;7.70;;
51925;SDS011;37952;51.938;15.480;2022-08-25T01:22:58;9.60;;;8.60;;
51925;SDS011;37952;51.938;15.480;2022-08-25T01:26:04;7.90;;;7.30;;
51925;SDS011;37952;51.938;15.480;2022-08-25T01:29:11;12.00;;;7.30;;
51925;SDS011;37952;51.938;15.480;2022-08-25T01:32:24;9.70;;;8.40;;
51925;SDS011;37952;51.938;15.480;2022-08-25T01:35:27;12.30;;;8.60;;
51925;SDS011;37952;51.938;15.480;2022-08-25T01:38:30;10.30;;;7.90;;
51925;SDS011;37952;51.938;15.480;2022-08-25T01:44:37;9.90;;;7.90;;
51925;SDS011;37952;51.938;15.480;2022-08-25T01:47:47;9.20;;;8.40;;
51925;SDS011;37952;51.938;15.480;2022-08-25T01:50:51;10.50;;;8.10;;
51925;SDS011;37952;51.938;15.480;2022-08-25T01:53:54;9.00;;;8.30;;
51925;SDS011;37952;51.938;15.480;2022-08-25T02:00:04;11.00;;;9.10;;
51925;SDS011;37952;51.938;15.480;2022-08-25T02:03:09;9.70;;;7.90;;
51925;SDS011;37952;51.938;15.480;2022-08-25T02:06:25;7.40;;;6.80;;
51925;SDS011;37952;51.938;15.480;2022-08-25T02:09:32;9.00;;;7.30;;
51925;SDS011;37952;51.938;15.480;2022-08-25T02:12:35;9.10;;;8.10;;
51925;SDS011;37952;51.938;15.480;2022-08-25T02:15:40;10.10;;;9.20;;
51925;SDS011;37952;51.938;15.480;2022-08-25T02:18:45;12.00;;;8.30;;
51925;SDS011;37952;51.938;15.480;2022-08-25T02:21:49;9.50;;;6.50;;
51925;SDS011;37952;51.938;15.480;2022-08-25T02:31:26;9.90;;;8.80;;
51925;SDS011;37952;51.938;15.480;2022-08-25T02:34:29;7.90;;;7.20;;
51925;SDS011;37952;51.938;15.480;2022-08-25T02:37:33;8.00;;;7.40;;
51925;SDS011;37952;51.938;15.480;2022-08-25T02:40:36;12.00;;;8.40;;
51925;SDS011;37952;51.938;15.480;2022-08-25T02:43:48;10.80;;;8.60;;
51925;SDS011;37952;51.938;15.480;2022-08-25T02:46:51;8.40;;;7.30;;
51925;SDS011;37952;51.938;15.480;2022-08-25T02:49:55;8.60;;;7.80;;
51925;SDS011;37952;51.938;15.480;2022-08-25T02:53:02;9.60;;;8.60;;
51925;SDS011;37952;51.938;15.480;2022-08-25T02:56:06;10.70;;;9.70;;
51925;SDS011;37952;51.938;15.480;2022-08-25T02:59:11;8.70;;;7.80;;
51925;SDS011;37952;51.938;15.480;2022-08-25T03:02:15;15.50;;;8.00;;
51925;SDS011;37952;51.938;15.480;2022-08-25T03:05:18;8.80;;;7.90;;
51925;SDS011;37952;51.938;15.480;2022-08-25T03:08:22;11.70;;;9.20;;
51925;SDS011;37952;51.938;15.480;2022-08-25T03:11:26;10.40;;;7.90;;
51925;SDS011;37952;51.938;15.480;2022-08-25T03:14:30;8.20;;;7.50;;
51925;SDS011;37952;51.938;15.480;2022-08-25T03:17:33;11.80;;;9.50;;
51925;SDS011;37952;51.938;15.480;2022-08-25T03:20:37;10.00;;;9.10;;
51925;SDS011;37952;51.938;15.480;2022-08-25T03:23:42;10.50;;;8.10;;
51925;SDS011;37952;51.938;15.480;2022-08-25T03:26:45;9.10;;;7.60;;
51925;SDS011;37952;51.938;15.480;2022-08-25T03:29:57;12.20;;;8.50;;
51925;SDS011;37952;51.938;15.480;2022-08-25T03:33:00;10.60;;;8.90;;
51925;SDS011;37952;51.938;15.480;2022-08-25T03:36:04;9.10;;;8.10;;
51925;SDS011;37952;51.938;15.480;2022-08-25T03:39:07;8.30;;;7.50;;
51925;SDS011;37952;51.938;15.480;2022-08-25T03:42:14;9.40;;;8.10;;
51925;SDS011;37952;51.938;15.480;2022-08-25T03:45:17;10.20;;;9.30;;
51925;SDS011;37952;51.938;15.480;2022-08-25T03:48:20;9.40;;;7.80;;
51925;SDS011;37952;51.938;15.480;2022-08-25T03:51:25;8.20;;;7.50;;
51925;SDS011;37952;51.938;15.480;2022-08-25T03:54:31;11.40;;;9.40;;
51925;SDS011;37952;51.938;15.480;2022-08-25T03:57:34;9.60;;;8.70;;
51925;SDS011;37952;51.938;15.480;2022-08-25T04:00:37;7.90;;;7.20;;
51925;SDS011;37952;51.938;15.480;2022-08-25T04:03:41;7.40;;;6.80;;
51925;SDS011;37952;51.938;15.480;2022-08-25T04:06:46;9.10;;;8.20;;
51925;SDS011;37952;51.938;15.480;2022-08-25T04:09:49;9.70;;;8.30;;
51925;SDS011;37952;51.938;15.480;2022-08-25T04:12:53;12.70;;;7.80;;
51925;SDS011;37952;51.938;15.480;2022-08-25T04:15:57;9.30;;;7.10;;
51925;SDS011;37952;51.938;15.480;2022-08-25T04:19:01;9.90;;;8.90;;
51925;SDS011;37952;51.938;15.480;2022-08-25T04:22:07;9.80;;;8.80;;
51925;SDS011;37952;51.938;15.480;2022-08-25T04:25:10;8.50;;;7.90;;
51925;SDS011;37952;51.938;15.480;2022-08-25T04:28:17;7.80;;;7.20;;
51925;SDS011;37952;51.938;15.480;2022-08-25T04:31:20;9.50;;;8.50;;
51925;SDS011;37952;51.938;15.480;2022-08-25T04:34:25;12.30;;;8.50;;
51925;SDS011;37952;51.938;15.480;2022-08-25T04:37:33;8.30;;;7.60;;
51925;SDS011;37952;51.938;15.480;2022-08-25T04:40:36;8.90;;;7.40;;
51925;SDS011;37952;51.938;15.480;2022-08-25T04:43:42;13.10;;;8.40;;
51925;SDS011;37952;51.938;15.480;2022-08-25T04:46:46;10.60;;;8.50;;
51925;SDS011;37952;51.938;15.480;2022-08-25T04:49:50;8.50;;;7.90;;
51925;SDS011;37952;51.938;15.480;2022-08-25T04:52:53;8.50;;;7.30;;
51925;SDS011;37952;51.938;15.480;2022-08-25T04:55:56;13.40;;;8.80;;
51925;SDS011;37952;51.938;15.480;2022-08-25T04:59:12;12.00;;;9.10;;
51925;SDS011;37952;51.938;15.480;2022-08-25T05:02:16;10.20;;;7.90;;
51925;SDS011;37952;51.938;15.480;2022-08-25T05:05:21;8.00;;;7.20;;
51925;SDS011;37952;51.938;15.480;2022-08-25T05:08:24;10.40;;;8.10;;
51925;SDS011;37952;51.938;15.480;2022-08-25T05:11:27;15.20;;;9.80;;
51925;SDS011;37952;51.938;15.480;2022-08-25T05:14:30;14.80;;;10.30;;
51925;SDS011;37952;51.938;15.480;2022-08-25T05:17:35;11.80;;;9.20;;
51925;SDS011;37952;51.938;15.480;2022-08-25T05:20:38;10.30;;;9.30;;
51925;SDS011;37952;51.938;15.480;2022-08-25T05:23:41;11.50;;;9.50;;
51925;SDS011;37952;51.938;15.480;2022-08-25T05:26:45;12.10;;;10.60;;
51925;SDS011;37952;51.938;15.480;2022-08-25T05:29:48;14.20;;;11.90;;
51925;SDS011;37952;51.938;15.480;2022-08-25T05:32:52;12.30;;;9.90;;
51925;SDS011;37952;51.938;15.480;2022-08-25T05:35:57;11.70;;;10.50;;
51925;SDS011;37952;51.938;15.480;2022-08-25T05:39:00;10.40;;;9.60;;
51925;SDS011;37952;51.938;15.480;2022-08-25T05:42:04;11.80;;;10.80;;
51925;SDS011;37952;51.938;15.480;2022-08-25T05:45:07;13.70;;;12.30;;
51925;SDS011;37952;51.938;15.480;2022-08-25T05:48:17;10.80;;;9.80;;
51925;SDS011;37952;51.938;15.480;2022-08-25T05:51:21;12.90;;;9.50;;
51925;SDS011;37952;51.938;15.480;2022-08-25T05:54:24;11.90;;;10.00;;
51925;SDS011;37952;51.938;15.480;2022-08-25T05:57:27;14.60;;;11.20;;
51925;SDS011;37952;51.938;15.480;2022-08-25T06:00:33;12.30;;;11.10;;
51925;SDS011;37952;51.938;15.480;2022-08-25T06:03:36;14.00;;;10.00;;
51925;SDS011;37952;51.938;15.480;2022-08-25T06:06:39;9.60;;;8.90;;
51925;SDS011;37952;51.938;15.480;2022-08-25T06:09:43;11.40;;;9.90;;
51925;SDS011;37952;51.938;15.480;2022-08-25T06:12:50;18.10;;;12.60;;
51925;SDS011;37952;51.938;15.480;2022-08-25T06:15:57;15.80;;;11.90;;
51925;SDS011;37952;51.938;15.480;2022-08-25T06:22:30;16.70;;;9.90;;
51925;SDS011;37952;51.938;15.480;2022-08-25T06:29:09;17.00;;;11.40;;
51925;SDS011;37952;51.938;15.480;2022-08-25T06:32:12;10.00;;;9.10;;
51925;SDS011;37952;51.938;15.480;2022-08-25T06:35:17;8.70;;;7.90;;
51925;SDS011;37952;51.938;15.480;2022-08-25T06:38:21;12.90;;;9.20;;
51925;SDS011;37952;51.938;15.480;2022-08-25T06:41:25;12.80;;;10.50;;
51925;SDS011;37952;51.938;15.480;2022-08-25T06:44:38;13.30;;;11.20;;
51925;SDS011;37952;51.938;15.480;2022-08-25T06:47:43;12.10;;;9.80;;
51925;SDS011;37952;51.938;15.480;2022-08-25T06:50:47;13.70;;;8.50;;
51925;SDS011;37952;51.938;15.480;2022-08-25T06:53:50;12.30;;;9.30;;
51925;SDS011;37952;51.938;15.480;2022-08-25T06:56:54;13.50;;;10.10;;
51925;SDS011;37952;51.938;15.480;2022-08-25T07:00:02;13.30;;;10.00;;
51925;SDS011;37952;51.938;15.480;2022-08-25T07:03:07;9.80;;;8.40;;
51925;SDS011;37952;51.938;15.480;2022-08-25T07:06:12;8.70;;;8.00;;
51925;SDS011;37952;51.938;15.480;2022-08-25T07:09:16;9.20;;;8.50;;
51925;SDS011;37952;51.938;15.480;2022-08-25T07:12:19;10.90;;;9.90;;
51925;SDS011;37952;51.938;15.480;2022-08-25T07:15:23;12.10;;;10.40;;
51925;SDS011;37952;51.938;15.480;2022-08-25T07:18:31;9.90;;;9.10;;
51925;SDS011;37952;51.938;15.480;2022-08-25T07:21:35;10.60;;;8.20;;
51925;SDS011;37952;51.938;15.480;2022-08-25T07:24:40;11.00;;;9.70;;
51925;SDS011;37952;51.938;15.480;2022-08-25T07:28:09;11.50;;;10.00;;
51925;SDS011;37952;51.938;15.480;2022-08-25T07:31:14;11.20;;;10.00;;
51925;SDS011;37952;51.938;15.480;2022-08-25T07:34:19;13.30;;;9.70;;
51925;SDS011;37952;51.938;15.480;2022-08-25T07:37:47;9.40;;;8.70;;
51925;SDS011;37952;51.938;15.480;2022-08-25T07:41:01;9.50;;;8.70;;
51925;SDS011;37952;51.938;15.480;2022-08-25T07:44:05;11.60;;;10.20;;
51925;SDS011;37952;51.938;15.480;2022-08-25T07:47:10;11.80;;;10.70;;
51925;SDS011;37952;51.938;15.480;2022-08-25T07:50:13;10.00;;;9.30;;
51925;SDS011;37952;51.938;15.480;2022-08-25T07:53:16;10.50;;;8.40;;
51925;SDS011;37952;51.938;15.480;2022-08-25T07:56:19;9.80;;;8.80;;
51925;SDS011;37952;51.938;15.480;2022-08-25T07:59:22;10.90;;;10.00;;
51925;SDS011;37952;51.938;15.480;2022-08-25T08:02:25;11.70;;;10.50;;
51925;SDS011;37952;51.938;15.480;2022-08-25T08:05:28;10.70;;;9.70;;
51925;SDS011;37952;51.938;15.480;2022-08-25T08:08:32;8.30;;;7.80;;
51925;SDS011;37952;51.938;15.480;2022-08-25T08:11:37;11.00;;;9.50;;
51925;SDS011;37952;51.938;15.480;2022-08-25T08:14:55;15.60;;;11.40;;
51925;SDS011;37952;51.938;15.480;2022-08-25T08:18:01;11.50;;;10.40;;
51925;SDS011;37952;51.938;15.480;2022-08-25T08:21:05;12.20;;;10.50;;
51925;SDS011;37952;51.938;15.480;2022-08-25T08:24:24;10.50;;;9.60;;
51925;SDS011;37952;51.938;15.480;2022-08-25T08:27:48;12.00;;;10.10;;
51925;SDS011;37952;51.938;15.480;2022-08-25T08:30:56;12.60;;;11.40;;
51925;SDS011;37952;51.938;15.480;2022-08-25T08:33:59;15.20;;;11.70;;
51925;SDS011;37952;51.938;15.480;2022-08-25T08:37:03;12.90;;;11.50;;
51925;SDS011;37952;51.938;15.480;2022-08-25T08:40:17;12.20;;;11.00;;
51925;SDS011;37952;51.938;15.480;2022-08-25T08:43:21;19.30;;;13.90;;
51925;SDS011;37952;51.938;15.480;2022-08-25T08:46:38;15.80;;;13.50;;
51925;SDS011;37952;51.938;15.480;2022-08-25T08:53:30;12.80;;;11.60;;
51925;SDS011;37952;51.938;15.480;2022-08-25T08:56:44;19.60;;;14.20;;
51925;SDS011;37952;51.938;15.480;2022-08-25T08:59:53;18.20;;;16.00;;
51925;SDS011;37952;51.938;15.480;2022-08-25T09:03:03;16.30;;;13.70;;
51925;SDS011;37952;51.938;15.480;2022-08-25T09:06:30;20.10;;;13.90;;
51925;SDS011;37952;51.938;15.480;2022-08-25T09:09:39;17.70;;;15.80;;
51925;SDS011;37952;51.938;15.480;2022-08-25T09:23:34;16.70;;;14.50;;
51925;SDS011;37952;51.938;15.480;2022-08-25T09:33:27;13.80;;;11.70;;
51925;SDS011;37952;51.938;15.480;2022-08-25T09:36:37;15.40;;;13.60;;
51925;SDS011;37952;51.938;15.480;2022-08-25T09:39:40;18.10;;;15.60;;
51925;SDS011;37952;51.938;15.480;2022-08-25T09:42:44;17.90;;;14.10;;
51925;SDS011;37952;51.938;15.480;2022-08-25T09:46:08;18.70;;;11.80;;
51925;SDS011;37952;51.938;15.480;2022-08-25T09:52:43;15.90;;;11.20;;
51925;SDS011;37952;51.938;15.480;2022-08-25T09:55:56;14.10;;;10.60;;
51925;SDS011;37952;51.938;15.480;2022-08-25T10:02:37;8.90;;;8.20;;
51925;SDS011;37952;51.938;15.480;2022-08-25T10:09:38;11.30;;;8.20;;
51925;SDS011;37952;51.938;15.480;2022-08-25T10:12:44;8.50;;;6.50;;
51925;SDS011;37952;51.938;15.480;2022-08-25T10:16:03;9.90;;;7.30;;
51925;SDS011;37952;51.938;15.480;2022-08-25T10:19:26;13.30;;;8.10;;
51925;SDS011;37952;51.938;15.480;2022-08-25T10:22:31;8.50;;;7.70;;
51925;SDS011;37952;51.938;15.480;2022-08-25T10:25:36;7.60;;;6.90;;
51925;SDS011;37952;51.938;15.480;2022-08-25T10:32:19;7.90;;;7.20;;
51925;SDS011;37952;51.938;15.480;2022-08-25T10:38:59;12.10;;;7.60;;
51925;SDS011;37952;51.938;15.480;2022-08-25T10:42:17;9.70;;;6.30;;
51925;SDS011;37952;51.938;15.480;2022-08-25T10:45:46;9.20;;;6.40;;
51925;SDS011;37952;51.938;15.480;2022-08-25T10:52:23;8.50;;;6.60;;
51925;SDS011;37952;51.938;15.480;2022-08-25T10:55:32;8.80;;;6.50;;
51925;SDS011;37952;51.938;15.480;2022-08-25T11:05:47;10.60;;;5.60;;
51925;SDS011;37952;51.938;15.480;2022-08-25T11:08:56;6.20;;;5.60;;
51925;SDS011;37952;51.938;15.480;2022-08-25T11:12:12;10.90;;;5.20;;
51925;SDS011;37952;51.938;15.480;2022-08-25T11:15:22;8.20;;;4.90;;
51925;SDS011;37952;51.938;15.480;2022-08-25T11:18:32;9.60;;;5.10;;
51925;SDS011;37952;51.938;15.480;2022-08-25T11:21:51;12.80;;;5.40;;
51925;SDS011;37952;51.938;15.480;2022-08-25T11:32:04;12.40;;;5.10;;
51925;SDS011;37952;51.938;15.480;2022-08-25T11:35:11;10.20;;;6.10;;
51925;SDS011;37952;51.938;15.480;2022-08-25T11:54:42;11.10;;;6.80;;
51925;SDS011;37952;51.938;15.480;2022-08-25T11:57:47;22.90;;;5.40;;
51925;SDS011;37952;51.938;15.480;2022-08-25T12:00:55;5.20;;;4.70;;
51925;SDS011;37952;51.938;15.480;2022-08-25T12:11:10;8.70;;;4.70;;
51925;SDS011;37952;51.938;15.480;2022-08-25T12:14:37;10.50;;;4.90;;
51925;SDS011;37952;51.938;15.480;2022-08-25T12:17:44;9.40;;;4.10;;
51925;SDS011;37952;51.938;15.480;2022-08-25T12:21:10;10.70;;;4.30;;
51925;SDS011;37952;51.938;15.480;2022-08-25T12:31:41;8.60;;;4.70;;
51925;SDS011;37952;51.938;15.480;2022-08-25T12:35:11;6.80;;;4.30;;
51925;SDS011;37952;51.938;15.480;2022-08-25T12:41:53;7.30;;;4.40;;
51925;SDS011;37952;51.938;15.480;2022-08-25T12:54:47;12.10;;;4.00;;
51925;SDS011;37952;51.938;15.480;2022-08-25T12:57:55;13.40;;;4.50;;
51925;SDS011;37952;51.938;15.480;2022-08-25T13:01:14;20.10;;;4.30;;
51925;SDS011;37952;51.938;15.480;2022-08-25T13:08:28;8.30;;;4.30;;
51925;SDS011;37952;51.938;15.480;2022-08-25T13:11:40;15.40;;;4.20;;
51925;SDS011;37952;51.938;15.480;2022-08-25T13:14:54;8.50;;;4.20;;
51925;SDS011;37952;51.938;15.480;2022-08-25T13:24:46;12.70;;;3.90;;
51925;SDS011;37952;51.938;15.480;2022-08-25T13:27:54;10.60;;;4.20;;
51925;SDS011;37952;51.938;15.480;2022-08-25T13:31:02;18.70;;;4.90;;
51925;SDS011;37952;51.938;15.480;2022-08-25T13:34:14;12.80;;;4.40;;
51925;SDS011;37952;51.938;15.480;2022-08-25T13:37:22;15.10;;;4.60;;
51925;SDS011;37952;51.938;15.480;2022-08-25T13:40:32;12.60;;;4.00;;
51925;SDS011;37952;51.938;15.480;2022-08-25T13:43:39;11.20;;;3.90;;
51925;SDS011;37952;51.938;15.480;2022-08-25T13:46:45;9.80;;;3.90;;
51925;SDS011;37952;51.938;15.480;2022-08-25T13:49:51;8.00;;;3.70;;
51925;SDS011;37952;51.938;15.480;2022-08-25T13:53:01;10.90;;;4.00;;
51925;SDS011;37952;51.938;15.480;2022-08-25T13:56:06;19.00;;;4.20;;
51925;SDS011;37952;51.938;15.480;2022-08-25T13:59:19;12.40;;;4.50;;
51925;SDS011;37952;51.938;15.480;2022-08-25T14:02:43;9.50;;;4.40;;
51925;SDS011;37952;51.938;15.480;2022-08-25T14:06:02;10.60;;;4.00;;
51925;SDS011;37952;51.938;15.480;2022-08-25T14:09:14;12.80;;;4.10;;
51925;SDS011;37952;51.938;15.480;2022-08-25T14:15:43;11.80;;;4.20;;
51925;SDS011;37952;51.938;15.480;2022-08-25T14:18:51;9.70;;;4.50;;
51925;SDS011;37952;51.938;15.480;2022-08-25T14:22:00;15.30;;;4.00;;
51925;SDS011;37952;51.938;15.480;2022-08-25T14:25:04;10.90;;;4.10;;
51925;SDS011;37952;51.938;15.480;2022-08-25T14:28:10;13.90;;;3.90;;
51925;SDS011;37952;51.938;15.480;2022-08-25T14:31:23;16.00;;;4.40;;
51925;SDS011;37952;51.938;15.480;2022-08-25T14:34:33;12.90;;;4.20;;
51925;SDS011;37952;51.938;15.480;2022-08-25T14:37:38;13.80;;;4.10;;
51925;SDS011;37952;51.938;15.480;2022-08-25T14:40:45;12.10;;;4.30;;
51925;SDS011;37952;51.938;15.480;2022-08-25T14:43:52;11.20;;;4.20;;
51925;SDS011;37952;51.938;15.480;2022-08-25T14:46:55;12.30;;;4.40;;
51925;SDS011;37952;51.938;15.480;2022-08-25T14:50:01;16.20;;;4.50;;
51925;SDS011;37952;51.938;15.480;2022-08-25T14:53:13;21.70;;;4.30;;
51925;SDS011;37952;51.938;15.480;2022-08-25T14:56:16;19.00;;;5.00;;
51925;SDS011;37952;51.938;15.480;2022-08-25T14:59:19;13.20;;;5.10;;
51925;SDS011;37952;51.938;15.480;2022-08-25T15:02:23;17.30;;;4.20;;
51925;SDS011;37952;51.938;15.480;2022-08-25T15:05:32;13.90;;;4.20;;
51925;SDS011;37952;51.938;15.480;2022-08-25T15:08:35;12.00;;;4.20;;
51925;SDS011;37952;51.938;15.480;2022-08-25T15:11:57;18.80;;;4.30;;
51925;SDS011;37952;51.938;15.480;2022-08-25T15:15:00;16.20;;;4.70;;
51925;SDS011;37952;51.938;15.480;2022-08-25T15:18:06;13.90;;;4.40;;
51925;SDS011;37952;51.938;15.480;2022-08-25T15:21:13;19.20;;;4.10;;
51925;SDS011;37952;51.938;15.480;2022-08-25T15:24:16;14.90;;;4.50;;
51925;SDS011;37952;51.938;15.480;2022-08-25T15:27:21;11.90;;;4.60;;
51925;SDS011;37952;51.938;15.480;2022-08-25T15:30:32;14.50;;;4.50;;
51925;SDS011;37952;51.938;15.480;2022-08-25T15:33:40;13.90;;;4.70;;
51925;SDS011;37952;51.938;15.480;2022-08-25T15:36:43;16.90;;;4.20;;
51925;SDS011;37952;51.938;15.480;2022-08-25T15:39:47;18.40;;;5.00;;
51925;SDS011;37952;51.938;15.480;2022-08-25T15:42:50;13.40;;;4.60;;
51925;SDS011;37952;51.938;15.480;2022-08-25T15:45:53;10.40;;;4.70;;
51925;SDS011;37952;51.938;15.480;2022-08-25T15:48:56;14.60;;;4.40;;
51925;SDS011;37952;51.938;15.480;2022-08-25T15:52:01;14.30;;;5.30;;
51925;SDS011;37952;51.938;15.480;2022-08-25T15:55:05;15.10;;;5.00;;
51925;SDS011;37952;51.938;15.480;2022-08-25T15:58:09;17.30;;;4.70;;
51925;SDS011;37952;51.938;15.480;2022-08-25T16:01:13;12.40;;;4.10;;
51925;SDS011;37952;51.938;15.480;2022-08-25T16:04:21;16.70;;;4.60;;
51925;SDS011;37952;51.938;15.480;2022-08-25T16:07:26;13.60;;;4.30;;
51925;SDS011;37952;51.938;15.480;2022-08-25T16:10:38;11.60;;;5.20;;
51925;SDS011;37952;51.938;15.480;2022-08-25T16:13:43;16.10;;;4.90;;
51925;SDS011;37952;51.938;15.480;2022-08-25T16:16:47;13.50;;;4.10;;
51925;SDS011;37952;51.938;15.480;2022-08-25T16:19:50;14.40;;;4.70;;
51925;SDS011;37952;51.938;15.480;2022-08-25T16:22:53;18.10;;;4.80;;
51925;SDS011;37952;51.938;15.480;2022-08-25T16:25:56;18.50;;;4.80;;
51925;SDS011;37952;51.938;15.480;2022-08-25T16:29:00;11.10;;;4.60;;
51925;SDS011;37952;51.938;15.480;2022-08-25T16:32:08;17.20;;;4.50;;
51925;SDS011;37952;51.938;15.480;2022-08-25T16:35:14;14.90;;;4.70;;
51925;SDS011;37952;51.938;15.480;2022-08-25T16:38:18;12.50;;;4.40;;
51925;SDS011;37952;51.938;15.480;2022-08-25T16:41:23;15.30;;;4.50;;
51925;SDS011;37952;51.938;15.480;2022-08-25T16:47:36;18.20;;;4.30;;
51925;SDS011;37952;51.938;15.480;2022-08-25T16:50:39;12.50;;;4.70;;
51925;SDS011;37952;51.938;15.480;2022-08-25T16:53:43;18.00;;;4.30;;
51925;SDS011;37952;51.938;15.480;2022-08-25T16:57:04;23.60;;;4.70;;
51925;SDS011;37952;51.938;15.480;2022-08-25T17:00:08;22.30;;;4.80;;
51925;SDS011;37952;51.938;15.480;2022-08-25T17:03:14;16.10;;;4.80;;
51925;SDS011;37952;51.938;15.480;2022-08-25T17:06:18;15.90;;;4.50;;
51925;SDS011;37952;51.938;15.480;2022-08-25T17:09:22;12.00;;;4.10;;
51925;SDS011;37952;51.938;15.480;2022-08-25T17:12:26;15.60;;;4.40;;
51925;SDS011;37952;51.938;15.480;2022-08-25T17:15:30;16.80;;;5.20;;
51925;SDS011;37952;51.938;15.480;2022-08-25T17:18:34;18.20;;;5.00;;
51925;SDS011;37952;51.938;15.480;2022-08-25T17:21:40;22.10;;;5.10;;
51925;SDS011;37952;51.938;15.480;2022-08-25T17:24:47;11.30;;;4.50;;
51925;SDS011;37952;51.938;15.480;2022-08-25T17:28:03;15.20;;;4.70;;
51925;SDS011;37952;51.938;15.480;2022-08-25T17:31:07;21.20;;;4.90;;
51925;SDS011;37952;51.938;15.480;2022-08-25T17:34:13;9.40;;;4.50;;
51925;SDS011;37952;51.938;15.480;2022-08-25T17:37:21;17.90;;;5.10;;
51925;SDS011;37952;51.938;15.480;2022-08-25T17:40:25;15.00;;;4.90;;
51925;SDS011;37952;51.938;15.480;2022-08-25T17:43:28;16.60;;;5.40;;
51925;SDS011;37952;51.938;15.480;2022-08-25T17:46:32;14.20;;;5.90;;
51925;SDS011;37952;51.938;15.480;2022-08-25T17:49:36;14.30;;;5.60;;
51925;SDS011;37952;51.938;15.480;2022-08-25T17:52:39;20.70;;;5.40;;
51925;SDS011;37952;51.938;15.480;2022-08-25T17:55:42;23.90;;;5.90;;
51925;SDS011;37952;51.938;15.480;2022-08-25T17:58:46;17.70;;;6.20;;
51925;SDS011;37952;51.938;15.480;2022-08-25T18:01:51;15.00;;;6.10;;
51925;SDS011;37952;51.938;15.480;2022-08-25T18:04:57;16.60;;;5.60;;
51925;SDS011;37952;51.938;15.480;2022-08-25T18:08:00;15.30;;;5.90;;
51925;SDS011;37952;51.938;15.480;2022-08-25T18:11:04;26.10;;;6.10;;
51925;SDS011;37952;51.938;15.480;2022-08-25T18:14:10;21.90;;;5.70;;
51925;SDS011;37952;51.938;15.480;2022-08-25T18:17:13;16.50;;;6.20;;
51925;SDS011;37952;51.938;15.480;2022-08-25T18:20:24;21.10;;;6.50;;
51925;SDS011;37952;51.938;15.480;2022-08-25T18:23:28;14.40;;;6.00;;
51925;SDS011;37952;51.938;15.480;2022-08-25T18:26:31;25.90;;;6.00;;
51925;SDS011;37952;51.938;15.480;2022-08-25T18:29:35;27.40;;;7.40;;
51925;SDS011;37952;51.938;15.480;2022-08-25T18:32:38;20.30;;;7.50;;
51925;SDS011;37952;51.938;15.480;2022-08-25T18:35:41;20.00;;;7.90;;
51925;SDS011;37952;51.938;15.480;2022-08-25T18:38:45;27.30;;;8.00;;
51925;SDS011;37952;51.938;15.480;2022-08-25T18:42:07;14.00;;;7.10;;
51925;SDS011;37952;51.938;15.480;2022-08-25T18:45:10;16.60;;;7.20;;
51925;SDS011;37952;51.938;15.480;2022-08-25T18:48:15;17.70;;;7.30;;
51925;SDS011;37952;51.938;15.480;2022-08-25T18:51:21;16.40;;;7.10;;
51925;SDS011;37952;51.938;15.480;2022-08-25T18:54:24;18.60;;;6.90;;
51925;SDS011;37952;51.938;15.480;2022-08-25T18:57:28;21.20;;;5.60;;
51925;SDS011;37952;51.938;15.480;2022-08-25T19:00:32;13.10;;;5.50;;
51925;SDS011;37952;51.938;15.480;2022-08-25T19:03:36;17.80;;;5.50;;
51925;SDS011;37952;51.938;15.480;2022-08-25T19:06:43;11.70;;;6.00;;
51925;SDS011;37952;51.938;15.480;2022-08-25T19:09:47;16.60;;;6.00;;
51925;SDS011;37952;51.938;15.480;2022-08-25T19:12:52;15.10;;;5.80;;
51925;SDS011;37952;51.938;15.480;2022-08-25T19:16:07;19.70;;;6.20;;
51925;SDS011;37952;51.938;15.480;2022-08-25T19:19:19;17.10;;;5.80;;
51925;SDS011;37952;51.938;15.480;2022-08-25T19:22:22;13.80;;;6.00;;
51925;SDS011;37952;51.938;15.480;2022-08-25T19:25:42;19.70;;;5.50;;
51925;SDS011;37952;51.938;15.480;2022-08-25T19:28:48;15.60;;;5.30;;
51925;SDS011;37952;51.938;15.480;2022-08-25T19:31:52;13.20;;;5.30;;
51925;SDS011;37952;51.938;15.480;2022-08-25T19:35:03;19.60;;;5.70;;
51925;SDS011;37952;51.938;15.480;2022-08-25T19:38:08;20.10;;;6.30;;
51925;SDS011;37952;51.938;15.480;2022-08-25T19:41:33;17.10;;;5.90;;
51925;SDS011;37952;51.938;15.480;2022-08-25T19:44:37;14.30;;;5.50;;
51925;SDS011;37952;51.938;15.480;2022-08-25T19:47:44;11.60;;;4.60;;
51925;SDS011;37952;51.938;15.480;2022-08-25T19:50:49;15.10;;;5.60;;
51925;SDS011;37952;51.938;15.480;2022-08-25T19:53:57;14.60;;;5.60;;
51925;SDS011;37952;51.938;15.480;2022-08-25T19:57:05;18.60;;;5.80;;
51925;SDS011;37952;51.938;15.480;2022-08-25T20:00:15;19.00;;;5.90;;
51925;SDS011;37952;51.938;15.480;2022-08-25T20:03:21;22.70;;;6.20;;
51925;SDS011;37952;51.938;15.480;2022-08-25T20:06:25;18.20;;;6.00;;
51925;SDS011;37952;51.938;15.480;2022-08-25T20:09:29;16.10;;;5.90;;
51925;SDS011;37952;51.938;15.480;2022-08-25T20:12:45;15.20;;;5.60;;
51925;SDS011;37952;51.938;15.480;2022-08-25T20:15:49;18.20;;;5.80;;
51925;SDS011;37952;51.938;15.480;2022-08-25T20:18:59;20.40;;;6.00;;
51925;SDS011;37952;51.938;15.480;2022-08-25T20:22:04;15.90;;;6.30;;
51925;SDS011;37952;51.938;15.480;2022-08-25T20:25:18;19.90;;;6.60;;
51925;SDS011;37952;51.938;15.480;2022-08-25T20:28:28;14.10;;;5.70;;
51925;SDS011;37952;51.938;15.480;2022-08-25T20:31:32;13.60;;;6.60;;
51925;SDS011;37952;51.938;15.480;2022-08-25T20:34:35;15.00;;;5.90;;
51925;SDS011;37952;51.938;15.480;2022-08-25T20:37:41;13.60;;;5.40;;
51925;SDS011;37952;51.938;15.480;2022-08-25T20:40:46;16.70;;;5.80;;
51925;SDS011;37952;51.938;15.480;2022-08-25T20:43:50;17.80;;;6.60;;
51925;SDS011;37952;51.938;15.480;2022-08-25T20:46:53;15.60;;;6.30;;
51925;SDS011;37952;51.938;15.480;2022-08-25T20:49:59;10.00;;;5.90;;
51925;SDS011;37952;51.938;15.480;2022-08-25T20:53:07;17.30;;;6.70;;